Time;durP1;ratioP1;P1;durP2;ratioP2;P2;SDS_P1;SDS_P2;PMS_P1;PMS_P2;Temp;Humidity;BMP_temperature;BMP_pressure;BME280_temperature;BME280_humidity;BME280_pressure;Samples;Min_cycle;Max_cycle;Signal;HPM_P1;HPM_P2
2024/02/26 05:02:38;;;;;;;4.57;3.95;;;1.20;99.90;;;;;;4967730;23;20281;-70
2024/02/26 05:05:05;;;;;;;3.92;3.60;;;1.20;99.90;;;;;;4969559;28;20201;-69
2024/02/26 05:07:32;;;;;;;4.80;4.28;;;1.20;99.90;;;;;;4970242;28;20225;-69
2024/02/26 05:09:59;;;;;;;6.28;4.28;;;1.20;99.90;;;;;;4972129;28;20609;-69
2024/02/26 05:12:26;;;;;;;4.25;3.50;;;1.10;99.90;;;;;;4961451;28;20233;-69
2024/02/26 05:14:52;;;;;;;5.93;3.25;;;1.10;99.90;;;;;;4964334;28;20859;-68
2024/02/26 05:17:19;;;;;;;3.80;3.50;;;1.10;99.90;;;;;;4963622;28;20689;-68
2024/02/26 05:19:47;;;;;;;4.22;2.58;;;1.10;99.90;;;;;;4963377;28;20213;-68
2024/02/26 05:22:13;;;;;;;3.13;2.92;;;1.10;99.90;;;;;;4962342;28;20227;-68
2024/02/26 05:24:40;;;;;;;4.28;3.90;;;1.10;99.90;;;;;;4954100;28;20201;-69
2024/02/26 05:27:07;;;;;;;10.45;3.83;;;1.10;99.90;;;;;;4955103;28;20605;-68
2024/02/26 05:29:34;;;;;;;6.40;5.80;;;1.10;99.90;;;;;;4958911;28;20221;-69
2024/02/26 05:32:01;;;;;;;5.78;5.45;;;1.10;99.90;;;;;;4950421;28;20229;-68
2024/02/26 05:34:27;;;;;;;3.65;3.00;;;1.10;99.90;;;;;;4956357;28;20217;-68
2024/02/26 05:36:55;;;;;;;6.38;5.25;;;1.10;99.90;;;;;;4954421;28;20635;-68
2024/02/26 05:39:22;;;;;;;4.18;3.92;;;1.20;99.90;;;;;;4960265;28;20213;-68
2024/02/26 05:41:49;;;;;;;4.53;3.50;;;1.20;99.90;;;;;;4965800;28;20225;-69
2024/02/26 05:44:16;;;;;;;3.20;3.05;;;1.10;99.90;;;;;;4956398;28;20569;-68
2024/02/26 05:46:43;;;;;;;5.72;5.13;;;1.10;99.90;;;;;;4956293;28;20245;-68
2024/02/26 05:49:10;;;;;;;6.50;4.00;;;1.10;99.90;;;;;;4959298;28;20817;-69
2024/02/26 05:51:36;;;;;;;5.32;4.80;;;1.10;99.90;;;;;;4961762;28;20255;-69
2024/02/26 05:54:04;;;;;;;4.70;4.35;;;1.10;99.90;;;;;;4958294;28;20288;-68
2024/02/26 05:56:31;;;;;;;5.30;3.50;;;1.10;99.90;;;;;;4955558;28;20607;-68
2024/02/26 05:58:58;;;;;;;7.45;5.10;;;1.20;99.90;;;;;;4960541;28;20209;-68
2024/02/26 06:01:25;;;;;;;5.05;4.68;;;1.10;99.90;;;;;;4961940;28;20268;-68
2024/02/26 06:03:52;;;;;;;10.25;4.60;;;1.20;99.90;;;;;;4967044;23;20237;-69
2024/02/26 06:06:19;;;;;;;6.18;4.30;;;1.20;99.90;;;;;;4962240;28;20224;-69
2024/02/26 06:08:46;;;;;;;4.28;3.97;;;1.20;99.90;;;;;;4970908;28;20219;-68
2024/02/26 06:11:14;;;;;;;4.32;3.97;;;1.10;99.90;;;;;;4970079;28;20299;-67
2024/02/26 06:13:40;;;;;;;9.70;4.57;;;1.10;99.90;;;;;;4957521;28;20240;-68
2024/02/26 06:16:09;;;;;;;5.88;2.97;;;1.10;99.90;;;;;;4958230;28;20213;-68
2024/02/26 06:18:36;;;;;;;6.82;4.00;;;1.20;99.90;;;;;;4956830;28;20205;-69
2024/02/26 06:21:03;;;;;;;4.38;3.80;;;1.20;99.90;;;;;;4954445;28;20210;-69
2024/02/26 06:23:30;;;;;;;4.40;4.07;;;1.20;99.90;;;;;;4955066;28;20233;-68
2024/02/26 06:25:56;;;;;;;5.13;4.70;;;1.20;99.90;;;;;;4959126;28;20304;-68
2024/02/26 06:28:24;;;;;;;4.25;3.30;;;1.20;99.90;;;;;;4959425;28;20217;-68
2024/02/26 06:30:52;;;;;;;4.70;4.30;;;1.30;99.90;;;;;;4958330;28;20275;-68
2024/02/26 06:33:19;;;;;;;2.92;2.65;;;1.30;99.90;;;;;;4956699;28;20241;-69
2024/02/26 06:35:45;;;;;;;3.83;3.63;;;1.40;99.90;;;;;;4956582;28;20585;-68
2024/02/26 06:38:13;;;;;;;4.25;3.72;;;1.40;99.90;;;;;;4955035;28;20214;-68
2024/02/26 06:40:40;;;;;;;3.97;3.67;;;1.50;99.90;;;;;;4958235;28;20208;-67
2024/02/26 06:43:07;;;;;;;5.38;4.53;;;1.50;99.90;;;;;;4958962;28;20546;-68
2024/02/26 06:45:35;;;;;;;3.35;3.15;;;1.50;99.90;;;;;;4959069;28;20209;-68
2024/02/26 06:48:02;;;;;;;5.65;5.03;;;1.50;99.90;;;;;;4954651;28;20212;-68
2024/02/26 06:50:29;;;;;;;4.38;4.07;;;1.60;99.90;;;;;;4952175;28;20681;-69
2024/02/26 06:52:55;;;;;;;4.18;3.60;;;1.60;99.90;;;;;;4951588;28;20601;-68
2024/02/26 06:55:22;;;;;;;6.18;4.25;;;1.60;99.90;;;;;;4958673;28;20244;-69
2024/02/26 06:57:49;;;;;;;10.63;4.40;;;1.60;99.90;;;;;;4958183;28;20217;-68
2024/02/26 07:00:16;;;;;;;3.90;3.60;;;1.60;99.90;;;;;;4952409;28;20300;-67
2024/02/26 07:02:45;;;;;;;5.53;5.05;;;1.60;99.90;;;;;;4957945;28;20594;-67
2024/02/26 07:05:12;;;;;;;3.13;2.97;;;1.70;99.90;;;;;;4956409;28;20233;-68
2024/02/26 07:07:39;;;;;;;5.85;3.55;;;1.70;99.90;;;;;;4955593;28;20641;-68
2024/02/26 07:10:06;;;;;;;3.78;3.58;;;1.80;99.90;;;;;;4950232;28;20673;-67
2024/02/26 07:12:33;;;;;;;4.63;4.22;;;1.80;99.90;;;;;;4950343;28;20238;-68
2024/02/26 07:15:00;;;;;;;4.78;4.38;;;1.80;99.90;;;;;;4957543;28;20229;-68
2024/02/26 07:17:27;;;;;;;3.60;3.30;;;1.80;99.90;;;;;;4962203;28;20650;-67
2024/02/26 07:19:55;;;;;;;3.10;2.90;;;1.80;99.90;;;;;;4959003;28;20571;-67
2024/02/26 07:22:21;;;;;;;3.67;3.38;;;1.90;99.90;;;;;;4952657;28;20209;-68
2024/02/26 07:24:48;;;;;;;7.55;3.60;;;1.90;99.90;;;;;;4960049;28;20253;-68
2024/02/26 07:27:17;;;;;;;4.13;3.30;;;1.90;99.90;;;;;;4962050;28;20644;-68
2024/02/26 07:29:44;;;;;;;3.67;3.35;;;2.00;99.90;;;;;;4950878;28;20206;-67
2024/02/26 07:32:11;;;;;;;5.05;4.00;;;2.00;99.90;;;;;;4950472;28;20222;-68
2024/02/26 07:34:41;;;;;;;3.20;3.00;;;2.00;99.90;;;;;;4949664;28;20229;-68
2024/02/26 07:37:09;;;;;;;3.50;3.28;;;2.10;99.90;;;;;;4960160;28;20231;-68
2024/02/26 07:39:36;;;;;;;3.75;3.50;;;2.10;99.90;;;;;;4955950;28;20213;-68
2024/02/26 07:42:04;;;;;;;5.43;4.90;;;2.10;99.90;;;;;;4950035;28;20761;-69
2024/02/26 07:44:30;;;;;;;4.95;4.47;;;2.20;99.90;;;;;;4952289;28;20728;-68
2024/02/26 07:46:57;;;;;;;5.20;4.78;;;2.20;99.90;;;;;;4950716;28;20222;-68
2024/02/26 07:49:24;;;;;;;4.85;4.55;;;2.30;99.90;;;;;;4959018;28;20592;-68
2024/02/26 07:51:51;;;;;;;6.05;5.28;;;2.30;99.90;;;;;;4953358;28;20222;-68
2024/02/26 07:54:19;;;;;;;5.30;5.00;;;2.40;99.90;;;;;;4958985;28;20230;-68
2024/02/26 07:56:46;;;;;;;4.53;4.10;;;2.50;99.90;;;;;;4960780;28;20215;-69
2024/02/26 07:59:12;;;;;;;5.18;4.55;;;2.50;99.90;;;;;;4963125;28;20224;-69
2024/02/26 08:01:41;;;;;;;6.07;5.45;;;2.60;99.90;;;;;;4945812;28;20246;-68
2024/02/26 08:04:08;;;;;;;9.15;4.65;;;2.60;99.90;;;;;;4949940;28;20649;-68
2024/02/26 08:06:35;;;;;;;4.20;3.72;;;2.60;99.90;;;;;;4950328;28;20214;-68
2024/02/26 08:09:01;;;;;;;5.85;5.35;;;2.70;99.90;;;;;;4959576;28;20335;-69
2024/02/26 08:11:29;;;;;;;6.35;5.90;;;2.80;99.90;;;;;;4952819;28;20500;-69
2024/02/26 08:13:56;;;;;;;4.90;4.47;;;2.90;99.90;;;;;;4949064;28;20228;-69
2024/02/26 08:16:23;;;;;;;5.20;4.80;;;2.90;99.90;;;;;;4952932;28;20228;-68
2024/02/26 08:18:49;;;;;;;5.22;4.85;;;2.90;99.90;;;;;;4960747;28;20641;-69
2024/02/26 08:21:16;;;;;;;5.03;4.03;;;2.90;99.90;;;;;;4956915;28;20220;-68
2024/02/26 08:23:44;;;;;;;5.55;5.00;;;3.00;99.90;;;;;;4952193;28;20235;-68
2024/02/26 08:26:11;;;;;;;4.80;4.20;;;3.10;99.90;;;;;;4961539;28;20216;-69
2024/02/26 08:28:39;;;;;;;4.40;4.13;;;3.10;99.90;;;;;;4954803;28;20303;-69
2024/02/26 08:31:07;;;;;;;5.45;5.18;;;3.10;99.90;;;;;;4957185;28;20219;-69
2024/02/26 08:33:35;;;;;;;4.00;3.70;;;3.10;99.90;;;;;;4964559;28;20245;-69
2024/02/26 08:36:05;;;;;;;4.05;3.70;;;3.20;99.90;;;;;;4960172;28;20290;-69
2024/02/26 08:38:32;;;;;;;4.55;4.22;;;3.20;99.90;;;;;;4957779;28;20235;-69
2024/02/26 08:40:58;;;;;;;5.55;5.05;;;3.20;99.90;;;;;;4959948;28;20212;-69
2024/02/26 08:43:25;;;;;;;4.65;4.32;;;3.30;99.90;;;;;;4962872;28;20243;-68
2024/02/26 08:45:53;;;;;;;5.72;5.22;;;3.30;99.90;;;;;;4963911;28;20536;-69
2024/02/26 08:48:20;;;;;;;3.88;3.55;;;3.20;99.90;;;;;;4963989;28;20214;-68
2024/02/26 08:50:47;;;;;;;5.57;5.05;;;3.30;99.90;;;;;;4962803;28;20211;-69
2024/02/26 08:53:14;;;;;;;4.32;4.13;;;3.30;99.90;;;;;;4961213;28;20253;-70
2024/02/26 08:55:40;;;;;;;4.32;3.92;;;3.30;99.90;;;;;;4958057;28;20211;-69
2024/02/26 08:58:07;;;;;;;4.90;4.35;;;3.40;99.90;;;;;;4962012;28;20213;-69
2024/02/26 09:00:34;;;;;;;3.25;3.05;;;3.40;99.90;;;;;;4957553;28;20242;-69
2024/02/26 09:03:02;;;;;;;3.40;3.10;;;3.40;99.90;;;;;;4963512;28;20311;-69
2024/02/26 09:05:28;;;;;;;6.90;3.70;;;3.50;99.90;;;;;;4969657;28;20335;-70
2024/02/26 09:07:55;;;;;;;5.38;3.60;;;3.60;99.90;;;;;;4963812;28;20687;-69
2024/02/26 09:10:22;;;;;;;9.25;4.07;;;3.50;99.90;;;;;;4964865;28;20231;-69
2024/02/26 09:12:48;;;;;;;6.57;5.82;;;3.60;99.90;;;;;;4957281;28;20224;-69
2024/02/26 09:15:15;;;;;;;4.20;3.90;;;3.60;99.90;;;;;;4962224;28;20228;-69
2024/02/26 09:17:42;;;;;;;7.65;4.10;;;3.60;99.90;;;;;;4956013;28;20209;-69
2024/02/26 09:20:11;;;;;;;6.82;6.18;;;3.50;99.90;;;;;;4959737;28;20311;-69
2024/02/26 09:22:38;;;;;;;8.30;4.80;;;3.60;99.90;;;;;;4958624;28;20667;-69
2024/02/26 09:25:06;;;;;;;6.03;5.63;;;3.60;99.90;;;;;;4959627;28;20233;-69
2024/02/26 09:27:33;;;;;;;5.35;4.63;;;3.60;99.90;;;;;;4966812;28;20250;-69
2024/02/26 09:29:59;;;;;;;8.80;5.70;;;3.60;99.90;;;;;;4954022;28;20238;-68
2024/02/26 09:32:26;;;;;;;5.20;4.80;;;3.60;99.90;;;;;;4959965;28;20403;-69
2024/02/26 09:34:53;;;;;;;4.10;3.90;;;3.70;99.90;;;;;;4967162;28;20231;-70
2024/02/26 09:37:21;;;;;;;5.20;4.75;;;3.80;99.90;;;;;;4965970;28;20209;-70
2024/02/26 09:39:47;;;;;;;5.68;5.03;;;3.80;99.90;;;;;;4958568;28;20218;-70
2024/02/26 09:42:14;;;;;;;6.15;5.28;;;3.80;99.90;;;;;;4959301;28;20209;-71
2024/02/26 09:44:42;;;;;;;4.18;3.80;;;3.90;99.90;;;;;;4962601;28;20228;-68
2024/02/26 09:47:13;;;;;;;5.25;4.80;;;3.90;99.90;;;;;;4952920;28;20211;-68
2024/02/26 09:49:40;;;;;;;4.68;4.32;;;4.10;99.90;;;;;;4964778;28;20208;-70
2024/02/26 09:52:09;;;;;;;5.15;4.43;;;4.10;99.90;;;;;;4967297;28;20219;-69
2024/02/26 09:54:38;;;;;;;5.78;5.28;;;4.10;99.90;;;;;;4970076;28;20235;-69
2024/02/26 09:57:14;;;;;;;7.45;4.97;;;4.20;99.90;;;;;;4961093;28;20207;-69
2024/02/26 09:59:42;;;;;;;5.20;4.07;;;4.30;99.90;;;;;;4970073;28;20204;-70
2024/02/26 10:02:12;;;;;;;4.70;4.30;;;4.30;99.90;;;;;;4968002;28;20231;-70
2024/02/26 10:04:40;;;;;;;7.60;4.97;;;4.40;99.90;;;;;;4963148;28;20262;-70
2024/02/26 10:07:11;;;;;;;6.00;5.45;;;4.40;99.90;;;;;;4967876;28;20223;-70
2024/02/26 10:09:40;;;;;;;5.05;4.70;;;4.50;99.90;;;;;;4961404;28;20212;-70
2024/02/26 10:12:11;;;;;;;5.00;4.63;;;4.50;99.90;;;;;;4962476;28;20668;-69
2024/02/26 10:14:38;;;;;;;6.05;5.43;;;4.50;99.90;;;;;;4958999;28;20224;-70
2024/02/26 10:17:09;;;;;;;5.13;4.82;;;4.60;99.90;;;;;;4956011;28;20210;-69
2024/02/26 10:19:36;;;;;;;5.63;5.10;;;4.60;99.90;;;;;;4970195;28;20212;-70
2024/02/26 10:22:03;;;;;;;5.88;5.38;;;4.70;99.90;;;;;;4967094;28;20249;-70
2024/02/26 10:24:30;;;;;;;4.03;3.83;;;4.90;99.90;;;;;;4956890;28;20224;-70
2024/02/26 10:26:59;;;;;;;5.13;4.72;;;4.90;99.90;;;;;;4965811;28;20224;-70
2024/02/26 10:29:26;;;;;;;4.93;4.53;;;5.00;99.90;;;;;;4964122;28;20204;-69
2024/02/26 10:31:54;;;;;;;4.68;4.28;;;5.10;99.90;;;;;;4969657;28;20339;-70
2024/02/26 10:34:21;;;;;;;5.90;4.57;;;5.30;99.90;;;;;;4970008;28;20240;-70
2024/02/26 10:36:48;;;;;;;5.00;4.70;;;5.40;99.90;;;;;;4968605;28;20287;-70
2024/02/26 10:39:15;;;;;;;4.78;4.45;;;5.40;99.90;;;;;;4961963;28;20212;-70
2024/02/26 10:41:43;;;;;;;4.75;4.35;;;5.50;99.90;;;;;;4969587;28;20217;-70
2024/02/26 10:44:12;;;;;;;6.97;4.40;;;5.60;99.90;;;;;;4968796;28;20239;-69
2024/02/26 10:46:40;;;;;;;4.72;4.32;;;5.70;99.90;;;;;;4970151;28;20208;-69
2024/02/26 10:49:14;;;;;;;2.45;2.35;;;5.80;99.90;;;;;;4966480;28;20212;-69
2024/02/26 10:51:44;;;;;;;5.88;3.97;;;5.90;99.90;;;;;;4968900;28;20647;-69
2024/02/26 10:54:16;;;;;;;4.63;3.97;;;5.90;99.90;;;;;;4968727;28;20236;-70
2024/02/26 10:56:44;;;;;;;4.15;3.85;;;6.10;99.90;;;;;;4965047;28;20823;-70
2024/02/26 10:59:12;;;;;;;4.72;4.05;;;6.20;99.90;;;;;;4966297;28;20209;-69
2024/02/26 11:01:41;;;;;;;4.18;3.72;;;6.30;99.90;;;;;;4969708;28;20212;-69
2024/02/26 11:04:09;;;;;;;5.15;4.68;;;6.30;99.90;;;;;;4968800;28;20319;-68
2024/02/26 11:06:36;;;;;;;4.78;4.55;;;6.40;99.90;;;;;;4961591;28;20212;-68
2024/02/26 11:09:03;;;;;;;10.18;4.97;;;6.50;99.90;;;;;;4950168;28;20285;-68
2024/02/26 11:11:31;;;;;;;3.58;3.40;;;6.70;99.90;;;;;;4949491;28;20584;-67
2024/02/26 11:14:00;;;;;;;4.03;3.80;;;6.80;99.90;;;;;;4966659;28;20268;-67
2024/02/26 11:16:30;;;;;;;5.93;5.53;;;6.90;99.90;;;;;;4969882;28;20222;-71
2024/02/26 11:19:00;;;;;;;4.20;3.90;;;7.00;99.90;;;;;;4957052;28;20218;-69
2024/02/26 11:21:38;;;;;;;4.13;3.92;;;7.10;99.90;;;;;;4954683;28;20636;-69
2024/02/26 11:24:06;;;;;;;3.80;3.60;;;7.20;99.90;;;;;;4962389;28;20234;-69
2024/02/26 11:26:35;;;;;;;2.78;2.67;;;7.20;99.90;;;;;;4960652;28;20214;-70
2024/02/26 11:29:02;;;;;;;4.18;3.92;;;7.30;99.90;;;;;;4949043;28;20295;-70
2024/02/26 11:31:30;;;;;;;2.95;2.85;;;7.30;99.90;;;;;;4954495;28;20220;-69
2024/02/26 11:33:57;;;;;;;3.33;3.08;;;7.50;99.90;;;;;;4959731;28;20233;-69
2024/02/26 11:36:25;;;;;;;4.95;3.95;;;7.50;99.90;;;;;;4961241;28;20684;-69
2024/02/26 11:38:52;;;;;;;3.67;3.42;;;7.60;99.90;;;;;;4961026;28;20231;-69
2024/02/26 11:41:19;;;;;;;2.50;2.40;;;7.70;99.90;;;;;;4965387;28;20213;-69
2024/02/26 11:43:51;;;;;;;3.15;3.05;;;7.80;99.90;;;;;;4950322;28;20226;-70
2024/02/26 11:46:30;;;;;;;2.67;2.67;;;7.80;99.90;;;;;;4946265;28;20315;-69
2024/02/26 11:49:01;;;;;;;3.22;3.00;;;7.90;99.90;;;;;;4956367;28;20268;-69
2024/02/26 11:51:29;;;;;;;2.60;2.50;;;8.00;99.90;;;;;;4957724;28;20217;-69
2024/02/26 11:53:58;;;;;;;2.90;2.70;;;8.10;99.90;;;;;;4951526;28;20643;-69
2024/02/26 11:56:26;;;;;;;2.70;2.50;;;8.10;99.90;;;;;;4956881;28;20269;-69
2024/02/26 11:59:01;;;;;;;3.33;3.13;;;8.20;99.90;;;;;;4965760;28;20580;-69
2024/02/26 12:01:47;;;;;;;2.22;1.85;;;8.20;99.90;;;;;;4955073;28;20206;-69
2024/02/26 12:04:17;;;;;;;4.38;3.97;;;8.20;99.90;;;;;;4953902;28;20730;-69
2024/02/26 12:06:47;;;;;;;2.70;2.60;;;8.20;99.90;;;;;;4958770;28;20884;-69
2024/02/26 12:09:14;;;;;;;2.13;2.10;;;8.30;99.90;;;;;;4966489;28;20210;-69
2024/02/26 12:11:43;;;;;;;2.92;2.83;;;8.40;99.90;;;;;;4953206;28;20208;-69
2024/02/26 12:14:10;;;;;;;3.00;2.85;;;8.50;99.90;;;;;;4961101;28;20676;-69
2024/02/26 12:16:38;;;;;;;2.35;2.35;;;8.60;99.90;;;;;;4965801;28;20205;-69
2024/02/26 12:19:10;;;;;;;2.45;2.35;;;8.60;99.90;;;;;;4953603;28;20596;-71
2024/02/26 12:21:38;;;;;;;2.17;2.08;;;8.70;99.90;;;;;;4959832;28;20224;-70
2024/02/26 12:24:11;;;;;;;2.00;1.90;;;8.80;99.90;;;;;;4947342;28;20335;-69
2024/02/26 12:26:37;;;;;;;2.63;2.53;;;8.80;99.90;;;;;;4961999;28;20215;-71
2024/02/26 12:29:04;;;;;;;1.95;1.85;;;8.90;99.90;;;;;;4962279;28;20643;-68
2024/02/26 12:31:38;;;;;;;2.47;2.38;;;8.90;99.90;;;;;;4949563;28;20610;-71
2024/02/26 12:34:05;;;;;;;2.60;2.50;;;8.90;99.90;;;;;;4952096;28;20268;-68
2024/02/26 12:36:35;;;;;;;1.88;1.70;;;9.00;99.90;;;;;;4944882;28;20210;-69
2024/02/26 12:39:02;;;;;;;2.78;2.58;;;9.00;99.90;;;;;;4954187;28;20533;-68
2024/02/26 12:41:30;;;;;;;3.83;3.53;;;9.00;99.90;;;;;;4947911;28;20201;-70
2024/02/26 12:43:58;;;;;;;2.08;2.00;;;9.00;99.90;;;;;;4948993;28;20295;-68
2024/02/26 12:46:25;;;;;;;2.20;1.90;;;8.90;99.90;;;;;;4946210;28;20220;-71
2024/02/26 12:48:51;;;;;;;2.83;2.63;;;8.90;99.90;;;;;;4946878;28;20253;-68
2024/02/26 12:51:19;;;;;;;3.15;2.17;;;8.80;99.90;;;;;;4949915;28;20690;-69
2024/02/26 12:53:50;;;;;;;2.40;2.20;;;8.80;99.90;;;;;;4956684;28;20244;-70
2024/02/26 12:56:17;;;;;;;2.10;1.98;;;8.80;99.90;;;;;;4945378;28;20210;-69
2024/02/26 12:58:46;;;;;;;2.40;2.33;;;8.80;99.90;;;;;;4947129;28;20695;-70
2024/02/26 13:01:16;;;;;;;2.15;2.15;;;8.90;99.90;;;;;;4953258;28;20588;-69
2024/02/26 13:03:43;;;;;;;3.08;2.97;;;9.00;99.90;;;;;;4955067;28;20229;-69
2024/02/26 13:06:10;;;;;;;1.98;1.88;;;9.10;99.90;;;;;;4948464;28;20304;-70
2024/02/26 13:08:37;;;;;;;1.55;1.55;;;9.10;99.90;;;;;;4955003;28;20212;-70
2024/02/26 13:11:06;;;;;;;2.20;2.10;;;9.10;99.90;;;;;;4954509;28;20297;-69
2024/02/26 13:13:32;;;;;;;2.13;1.83;;;9.10;99.90;;;;;;4947488;28;20244;-69
2024/02/26 13:16:04;;;;;;;1.92;1.83;;;9.10;99.90;;;;;;4953829;28;20201;-70
2024/02/26 13:18:31;;;;;;;2.28;2.28;;;9.10;99.90;;;;;;4954290;28;20219;-69
2024/02/26 13:21:08;;;;;;;2.00;1.90;;;9.20;99.90;;;;;;4953344;28;20271;-69
2024/02/26 13:23:35;;;;;;;2.28;2.08;;;9.20;99.90;;;;;;4951784;28;20216;-70
2024/02/26 13:26:02;;;;;;;2.28;1.60;;;9.10;99.90;;;;;;4953373;28;20241;-75
2024/02/26 13:28:30;;;;;;;1.60;1.60;;;9.20;99.90;;;;;;4953289;28;20679;-69
2024/02/26 13:30:59;;;;;;;1.90;1.90;;;9.20;99.90;;;;;;4954685;28;20216;-69
2024/02/26 13:33:27;;;;;;;1.45;1.45;;;9.20;99.90;;;;;;4955289;28;20299;-69
2024/02/26 13:35:56;;;;;;;1.48;1.42;;;9.30;99.90;;;;;;4953919;28;20213;-69
2024/02/26 13:38:23;;;;;;;1.52;1.52;;;9.30;99.90;;;;;;4954764;28;20213;-69
2024/02/26 13:40:51;;;;;;;1.60;1.50;;;9.30;99.90;;;;;;4955157;28;20212;-69
2024/02/26 13:43:17;;;;;;;1.60;1.60;;;9.30;99.90;;;;;;4953841;28;20690;-69
2024/02/26 13:45:46;;;;;;;1.98;1.70;;;9.20;99.90;;;;;;4952954;28;20205;-69
2024/02/26 13:48:13;;;;;;;2.00;1.90;;;9.30;99.90;;;;;;4952859;28;20264;-69
2024/02/26 13:50:41;;;;;;;1.92;1.92;;;9.30;99.90;;;;;;4954111;28;20611;-70
2024/02/26 13:53:08;;;;;;;5.15;2.10;;;9.20;99.90;;;;;;4954683;28;20208;-70
2024/02/26 13:55:34;;;;;;;1.88;1.88;;;9.30;99.90;;;;;;4949828;28;20228;-70
2024/02/26 13:58:01;;;;;;;1.98;1.88;;;9.20;99.90;;;;;;4951951;28;20571;-69
2024/02/26 14:00:29;;;;;;;2.10;2.00;;;9.30;99.90;;;;;;4951052;28;20207;-69
2024/02/26 14:02:57;;;;;;;2.15;2.15;;;9.20;99.90;;;;;;4951168;28;20301;-70
2024/02/26 14:05:24;;;;;;;2.15;2.05;;;9.20;99.90;;;;;;4952294;28;20241;-70
2024/02/26 14:07:50;;;;;;;2.67;2.25;;;9.20;99.90;;;;;;4952077;28;20209;-70
2024/02/26 14:10:17;;;;;;;2.45;2.35;;;9.20;99.90;;;;;;4954185;28;20217;-70
2024/02/26 14:12:44;;;;;;;2.10;2.00;;;9.10;99.90;;;;;;4954260;28;20623;-70
2024/02/26 14:15:12;;;;;;;2.35;2.30;;;9.10;99.90;;;;;;4953248;28;20237;-70
2024/02/26 14:17:38;;;;;;;2.78;2.50;;;9.20;99.90;;;;;;4953348;28;20211;-69
2024/02/26 14:20:08;;;;;;;2.88;2.70;;;9.10;99.90;;;;;;4954025;28;20808;-69
2024/02/26 14:22:35;;;;;;;3.05;2.95;;;9.20;99.90;;;;;;4952765;28;20281;-69
2024/02/26 14:25:02;;;;;;;2.65;2.45;;;9.10;99.90;;;;;;4953587;28;20224;-69
2024/02/26 14:27:29;;;;;;;3.22;2.90;;;9.10;99.90;;;;;;4955326;28;20243;-69
2024/02/26 14:29:56;;;;;;;3.25;2.97;;;9.10;99.90;;;;;;4954613;28;20209;-69
2024/02/26 14:32:22;;;;;;;3.83;3.35;;;9.00;99.90;;;;;;4949228;28;20555;-69
2024/02/26 14:34:49;;;;;;;2.95;2.75;;;9.00;99.90;;;;;;4953807;28;20237;-69
2024/02/26 14:37:17;;;;;;;3.53;3.28;;;9.00;99.90;;;;;;4954619;28;20225;-70
2024/02/26 14:39:44;;;;;;;4.60;4.20;;;9.00;99.90;;;;;;4955164;28;20667;-69
2024/02/26 14:42:11;;;;;;;3.50;3.20;;;9.00;99.90;;;;;;4952478;28;20242;-69
2024/02/26 14:44:38;;;;;;;3.75;3.45;;;8.90;99.90;;;;;;4965578;23;20224;-69
2024/02/26 14:47:05;;;;;;;3.53;3.33;;;8.90;99.90;;;;;;4971904;28;20213;-69
2024/02/26 14:49:32;;;;;;;3.38;3.05;;;8.90;99.90;;;;;;4969216;28;20777;-69
2024/02/26 14:51:58;;;;;;;5.07;4.30;;;9.00;99.90;;;;;;4962479;28;20209;-69
2024/02/26 14:54:27;;;;;;;4.00;3.60;;;8.90;99.90;;;;;;4970091;28;20235;-70
2024/02/26 14:56:53;;;;;;;4.85;4.45;;;8.90;99.90;;;;;;4970713;28;20223;-68
2024/02/26 14:59:20;;;;;;;5.68;5.00;;;8.90;99.90;;;;;;4971021;28;20216;-67
2024/02/26 15:01:47;;;;;;;4.63;4.20;;;8.90;99.90;;;;;;4970225;28;20209;-68
2024/02/26 15:04:14;;;;;;;4.18;3.95;;;8.80;99.90;;;;;;4966474;28;20233;-70
2024/02/26 15:06:40;;;;;;;5.03;4.53;;;8.80;99.90;;;;;;4966661;28;20283;-68
2024/02/26 15:09:08;;;;;;;5.38;3.70;;;8.70;99.90;;;;;;4970669;28;20208;-67
2024/02/26 15:11:39;;;;;;;4.95;4.65;;;8.70;99.90;;;;;;4970569;28;20241;-68
2024/02/26 15:14:05;;;;;;;8.75;4.80;;;8.70;99.90;;;;;;4970464;28;20227;-68
2024/02/26 15:16:32;;;;;;;7.97;6.07;;;8.60;99.90;;;;;;4968987;28;20553;-68
2024/02/26 15:18:59;;;;;;;4.95;4.55;;;8.60;99.90;;;;;;4965897;28;20210;-68
2024/02/26 15:21:25;;;;;;;7.43;5.88;;;8.50;99.90;;;;;;4969268;28;20235;-67
2024/02/26 15:23:54;;;;;;;6.03;5.35;;;8.50;99.90;;;;;;4970845;28;20207;-68
2024/02/26 15:26:21;;;;;;;4.50;4.20;;;8.40;99.90;;;;;;4970419;28;20586;-68
2024/02/26 15:28:50;;;;;;;5.57;5.05;;;8.40;99.90;;;;;;4970561;28;20239;-69
2024/02/26 15:31:17;;;;;;;8.73;5.50;;;8.30;99.90;;;;;;4969853;28;20228;-68
2024/02/26 15:33:44;;;;;;;4.70;4.25;;;8.30;99.90;;;;;;4967063;28;20210;-68
2024/02/26 15:36:11;;;;;;;6.72;6.10;;;8.20;99.90;;;;;;4961117;28;20235;-68
2024/02/26 15:38:38;;;;;;;6.05;5.15;;;8.20;99.90;;;;;;4969731;28;20246;-68
2024/02/26 15:41:11;;;;;;;8.25;6.38;;;8.10;99.90;;;;;;4966359;28;20208;-69
2024/02/26 15:43:38;;;;;;;5.72;4.72;;;8.10;99.90;;;;;;4968324;28;20696;-69
2024/02/26 15:46:06;;;;;;;9.27;6.35;;;8.00;99.90;;;;;;4968552;28;20239;-69
2024/02/26 15:48:33;;;;;;;5.78;3.88;;;8.00;99.90;;;;;;4966722;28;20557;-69
2024/02/26 15:51:00;;;;;;;7.20;6.60;;;7.90;99.90;;;;;;4969002;28;20234;-69
2024/02/26 15:53:26;;;;;;;9.23;7.03;;;7.80;99.90;;;;;;4969782;28;20233;-69
2024/02/26 15:55:53;;;;;;;13.05;7.13;;;7.80;99.90;;;;;;4970877;28;20328;-68
2024/02/26 15:58:20;;;;;;;14.95;7.50;;;7.70;99.90;;;;;;4969786;28;20213;-68
2024/02/26 16:00:47;;;;;;;10.50;5.10;;;7.70;99.90;;;;;;4967741;28;20563;-69
2024/02/26 16:03:15;;;;;;;13.02;7.60;;;7.60;99.90;;;;;;4969776;28;20279;-68
2024/02/26 16:05:42;;;;;;;9.32;6.55;;;7.50;99.90;;;;;;4962449;28;20319;-68
2024/02/26 16:08:19;;;;;;;8.43;6.07;;;7.50;99.90;;;;;;4969395;28;20232;-68
2024/02/26 16:10:46;;;;;;;13.20;7.07;;;7.40;99.90;;;;;;4961999;28;20219;-68
2024/02/26 16:13:13;;;;;;;7.43;5.75;;;7.40;99.90;;;;;;4970473;28;20262;-68
2024/02/26 16:15:45;;;;;;;12.57;6.60;;;7.40;99.90;;;;;;4968897;28;20303;-68
2024/02/26 16:18:12;;;;;;;7.60;6.88;;;7.30;99.90;;;;;;4965044;28;20205;-68
2024/02/26 16:20:40;;;;;;;6.97;5.60;;;7.20;99.90;;;;;;4963296;28;20220;-68
2024/02/26 16:23:07;;;;;;;9.57;5.15;;;7.20;99.90;;;;;;4966494;28;20217;-69
2024/02/26 16:25:35;;;;;;;6.63;5.65;;;7.20;99.90;;;;;;4960335;28;20260;-70
2024/02/26 16:28:02;;;;;;;9.80;5.43;;;7.10;99.90;;;;;;4961787;28;20264;-71
2024/02/26 16:30:28;;;;;;;10.50;7.13;;;7.10;99.90;;;;;;4958085;28;20236;-70
2024/02/26 16:32:55;;;;;;;11.50;6.65;;;7.00;99.90;;;;;;4964445;28;20214;-70
2024/02/26 16:35:23;;;;;;;10.18;8.05;;;7.00;99.90;;;;;;4967824;28;20236;-71
2024/02/26 16:37:51;;;;;;;7.60;5.63;;;6.90;99.90;;;;;;4972570;28;20620;-71
2024/02/26 16:40:17;;;;;;;8.38;6.00;;;6.80;99.90;;;;;;4960589;28;20213;-70
2024/02/26 16:42:44;;;;;;;11.07;6.55;;;6.80;99.90;;;;;;4964086;28;20304;-71
2024/02/26 16:45:12;;;;;;;15.50;7.90;;;6.80;99.90;;;;;;4964499;28;20241;-71
2024/02/26 16:47:41;;;;;;;8.75;6.22;;;6.70;99.90;;;;;;4973277;28;20303;-71
2024/02/26 16:50:09;;;;;;;12.57;6.70;;;6.70;99.90;;;;;;4962213;28;20217;-69
2024/02/26 16:52:35;;;;;;;8.05;5.93;;;6.70;99.90;;;;;;4968439;28;20663;-71
2024/02/26 16:55:05;;;;;;;14.68;7.18;;;6.60;99.90;;;;;;4974251;28;20228;-70
2024/02/26 16:57:32;;;;;;;10.82;6.57;;;6.60;99.90;;;;;;4966845;28;20590;-70
2024/02/26 16:59:58;;;;;;;9.48;7.47;;;6.50;99.90;;;;;;4961290;28;20640;-70
2024/02/26 17:02:25;;;;;;;17.85;7.95;;;6.50;99.90;;;;;;4964463;28;20224;-72
2024/02/26 17:04:52;;;;;;;12.73;7.47;;;6.40;99.90;;;;;;4964010;28;20308;-71
2024/02/26 17:07:18;;;;;;;7.68;5.47;;;6.40;99.90;;;;;;4967971;28;20209;-71
2024/02/26 17:09:45;;;;;;;13.25;8.02;;;6.30;99.90;;;;;;4961599;28;20224;-72
2024/02/26 17:12:13;;;;;;;4.50;3.63;;;6.30;99.90;;;;;;4966857;28;20204;-70
2024/02/26 17:14:40;;;;;;;7.50;6.15;;;6.20;99.90;;;;;;4966972;28;20266;-70
2024/02/26 17:17:06;;;;;;;9.20;6.38;;;6.20;99.90;;;;;;4962402;28;20223;-70
2024/02/26 17:19:34;;;;;;;10.50;4.90;;;6.10;99.90;;;;;;4966454;28;20227;-71
2024/02/26 17:22:01;;;;;;;12.85;7.45;;;6.10;99.90;;;;;;4969230;28;20244;-70
2024/02/26 17:24:28;;;;;;;10.30;5.35;;;6.10;99.90;;;;;;4969007;28;20225;-70
2024/02/26 17:26:55;;;;;;;10.52;7.00;;;6.00;99.90;;;;;;4984898;28;20216;-69
2024/02/26 17:29:23;;;;;;;14.35;8.63;;;6.00;99.90;;;;;;4972689;28;20209;-71
2024/02/26 17:31:50;;;;;;;9.75;6.85;;;6.00;99.90;;;;;;4960377;28;20213;-71
2024/02/26 17:34:16;;;;;;;11.73;8.45;;;5.90;99.90;;;;;;4968920;28;20229;-71
2024/02/26 17:36:43;;;;;;;13.23;7.80;;;5.90;99.90;;;;;;4970084;28;20236;-72
2024/02/26 17:39:10;;;;;;;13.00;7.60;;;5.90;99.90;;;;;;4961203;28;20701;-69
2024/02/26 17:41:38;;;;;;;14.35;6.70;;;5.80;99.90;;;;;;4957928;28;20579;-69
2024/02/26 17:44:05;;;;;;;8.05;5.75;;;5.80;99.90;;;;;;4972912;28;20611;-70
2024/02/26 17:46:33;;;;;;;11.80;7.57;;;5.70;99.90;;;;;;4961050;28;21114;-70
2024/02/26 17:49:00;;;;;;;10.65;6.90;;;5.70;99.90;;;;;;4962692;28;20224;-70
2024/02/26 17:51:26;;;;;;;11.70;4.85;;;5.60;99.90;;;;;;4963272;28;20795;-68
2024/02/26 17:53:53;;;;;;;5.80;4.70;;;5.60;99.90;;;;;;4963251;28;20216;-69
2024/02/26 17:56:20;;;;;;;9.85;4.70;;;5.60;99.90;;;;;;4963448;28;20225;-69
2024/02/26 17:58:47;;;;;;;10.43;5.70;;;5.50;99.90;;;;;;4970118;28;20537;-71